Station: Mackay Racecourse  

  Atmospheric Gas Attenuation - ITU Rec 676-11   ----------------- dB/100km -----------------
Date Time Temp RH % AH g/m3 Dew Point Wind Direction Speed kph Gust kph Barometer mB Rainfall Since 9am 24GHz 47GHz 76GHz 122GHz 134GHz 241GHz
08/05 12:30 25.2 41 9.54 11 15 24 1013.1 0 21.0 24.2 37.8 99.4 96.0 331.5
08/05 12:20 25.1 39 9.03 10.5 17 20 1013.1 0 20.0 23.5 36.1 94.7 90.2 311.2
08/05 12:10 25.3 41 9.6 11.4 13 17 1013.1 0 21.1 24.2 38.0 99.8 96.6 333.5
08/05 12:00 24.6 43 9.68 11.2 13 24 1013.1 0 21.3 24.5 38.6 101.5 98.4 339.8
08/05 11:50 24.7 42 9.51 10.9 15 19 1013.1 0 21.0 24.3 38.0 99.7 96.3 332.3
08/05 11:40 24.2 41 9.02 10.4 11 13 1013.1 0 20.0 23.7 36.5 95.7 91.1 314.2
08/05 11:30 23.9 42 9.09 10.2 17 22 1013.1 0 20.1 23.9 36.8 96.7 92.3 318.3
08/05 11:20 23.6 43 9.14 10.3 17 19 1013.1 0 20.3 24.0 37.2 97.5 93.2 321.5
08/05 11:10 23.4 43 9.04 10.1 13 19 1013.1 0 20.1 23.9 36.9 96.8 92.3 318.2
08/05 11:00 23.4 42 8.83 9.8 17 20 1013.1 0 19.6 23.6 36.1 94.8 89.8 309.5
08/05 10:50 23.2 41 8.52 9.5 20 24 1013.1 0 19.0 23.2 35.1 92.1 86.4 297.6
08/05 10:40 23.2 43 8.94 9.9 13 17 1013.1 0 19.9 23.8 36.6 96.1 91.3 314.8
08/05 10:30 22.8 44 8.94 9.9 17 22 1013.1 0 19.9 23.9 36.8 96.6 91.8 316.4
08/05 10:20 22.7 42 8.49 9.4 15 20 1013.1 0 18.9 23.3 35.2 92.4 86.6 298.2
08/05 10:10 22.5 47 9.39 10.6 13 17 1013.1 0 20.8 24.7 38.6 101.3 97.5 336.4
08/05 10:00 22.2 45 8.83 9.7 11 17 1013.1 0 19.7 23.9 36.7 96.2 91.2 314.2
08/05 09:50 21.9 45 8.68 9.7 11 13 1013.1 0 19.4 23.8 36.3 95.1 89.7 309.1
08/05 09:40 21.7 47 8.96 9.9 13 19 1013.1 0 20.0 24.2 37.4 98.1 93.3 321.6
08/05 09:30 21.4 45 8.44 9 17 26 1013.1 0 18.9 23.6 35.6 93.4 87.4 301.0
08/05 09:20 21.3 46 8.57 9.2 19 22 1013.1 0 19.2 23.8 36.1 94.8 89.1 306.8
08/05 09:10 21.2 47 8.71 9.4 17 20 1013.1 0 19.5 24.0 36.7 96.3 90.9 313.0
08/05 09:00 21 46 8.43 8.9 19 28 1013.1 0 18.9 23.7 35.8 93.8 87.7 302.1
08/05 08:50 20.6 51 9.13 10.1 13 17 1013.1 0 20.4 24.8 38.5 101.1 96.7 333.3
08/05 08:40 20.3 52 9.14 10.1 17 19 1013.1 0 20.4 24.9 38.7 101.6 97.2 335.0
08/05 08:30 20 53 9.16 10.1 15 20 1013.1 0 20.5 25.0 38.9 102.2 97.8 337.1
08/05 08:20 19.7 57 9.68 10.9 11 13 1013.1 0 21.6 25.9 41.0 107.9 104.7 361.2
08/05 08:10 19.4 58 9.68 11.1 11 11 1013.1 0 21.6 26.0 41.2 108.3 105.1 362.6
08/05 08:00 19.6 59 9.96 11.4 7 15 1013.1 0 22.2 26.4 42.2 110.9 108.4 374.1
08/05 07:50 18.9 63 10.21 11.7 7 7 1013.1 0 22.8 27.0 43.5 114.5 112.6 388.8
08/05 07:40 19.1 61 10 11.4 9 11 1013.1 0 22.3 26.6 42.6 112.0 109.6 378.3
08/05 07:30 18.9 63 10.21 11.7 6 9 1013.1 0 22.8 27.0 43.5 114.5 112.6 388.8
08/05 07:20 18.8 64 10.31 11.8 4 4 1013.1 0 23.0 27.2 44.0 115.7 114.0 393.8
08/05 07:10 18.7 61 9.77 11.2 9 11 1013.1 0 21.8 26.3 41.9 110.2 107.2 369.8
08/05 07:00 18.6 63 10.03 11.4 6 9 1013.1 0 22.4 26.8 43.0 113.0 110.7 382.1
08/05 06:50 18.3 66 10.32 11.8 7 9 1013.1 0 23.0 27.3 44.3 116.5 114.9 396.8
08/05 06:40 17.6 69 10.35 12 4 4 1013.1 0 23.1 27.6 44.8 117.9 116.3 401.8
08/05 06:30 16.9 78 11.22 13 4 6 1013.1 0 25.0 29.3 48.8 128.6 129.3 446.9
08/05 06:20 16.6 84 11.87 14 2 2 1013.1 0 26.4 30.5 51.8 136.5 138.9 480.6
08/05 06:10 16.1 82 11.24 13 0 0 1013.1 0 25.1 29.6 49.4 130.2 130.9 452.5
08/05 06:00 16.1 81 11.1 12.8 2 4 1013.1 0 24.8 29.3 48.8 128.6 129.0 445.7
08/05 05:50 16.4 78 10.89 12.5 2 4 1013.1 0 24.3 28.9 47.8 125.7 125.6 433.8
08/05 05:40 16.5 78 10.95 12.6 4 4 1013.1 0 24.5 28.9 48.0 126.2 126.2 436.1
08/05 05:30 16.6 80 11.3 13.1 4 4 1013.1 0 25.2 29.5 49.4 130.0 130.9 452.5
08/05 05:20 16.9 78 11.22 13 2 4 1013.1 0 25.0 29.3 48.8 128.6 129.3 446.9
08/05 05:10 17.1 77 11.21 13 2 2 1013.1 0 25.0 29.2 48.7 128.2 128.8 445.3
08/05 05:00 17.4 76 11.26 13.1 4 6 1013.1 0 25.1 29.2 48.7 128.2 129.0 446.0
08/05 04:50 17.7 72 10.86 12.6 6 6 1013.1 0 24.2 28.4 46.9 123.3 123.0 425.2
08/05 04:40 18.1 70 10.81 12.5 6 7 1013.1 0 24.1 28.2 46.4 122.1 121.7 420.7
08/05 04:30 18.1 71 10.97 12.8 6 7 1013.1 0 24.4 28.5 47.1 123.9 123.9 428.2
08/05 04:20 18.2 71 11.03 13 4 6 1013.1 0 24.5 28.5 47.3 124.4 124.5 430.5
08/05 04:10 18.2 71 11.03 13 4 6 1013.1 0 24.5 28.5 47.3 124.4 124.5 430.5
08/05 04:00 18.6 71 11.3 13.2 6 7 1013.1 0 25.1 28.8 48.1 126.7 127.5 441.0
08/05 03:50 18.8 70 11.27 13.2 6 6 1013.1 0 25.0 28.7 47.9 126.1 126.8 438.5
08/05 03:40 19.1 70 11.47 13.5 9 9 1013.1 0 25.4 29.0 48.5 127.8 129.0 446.2
08/05 03:30 19.3 69 11.44 13.5 9 11 1013.1 0 25.3 28.8 48.3 127.1 128.3 443.7
08/05 03:20 19.4 71 11.84 14 9 11 1013.1 0 26.2 29.5 49.9 131.4 133.5 462.1
08/05 03:10 19.6 74 12.49 14.8 11 13 1013.1 0 27.6 30.5 52.5 138.3 142.1 492.1
08/05 03:00 19.8 75 12.81 15.2 13 19 1013.1 0 28.2 31.0 53.7 141.6 146.2 506.4
08/05 02:50 20 76 13.13 15.6 15 17 1013.1 0 28.9 31.5 54.9 144.9 150.3 520.7
08/05 02:40 20 76 13.13 15.6 11 13 1013.1 0 28.9 31.5 54.9 144.9 150.3 520.7
08/05 02:30 20.5 74 13.17 15.7 11 15 1013.1 0 28.9 31.4 54.7 144.4 149.9 519.3
08/05 02:20 20.5 77 13.7 16.3 9 9 1013.1 0 30.1 32.3 57.0 150.5 157.4 545.4
08/05 02:10 20.4 82 14.5 17.2 9 11 1013.1 0 31.8 33.7 60.6 160.1 169.1 586.4
08/05 02:00 20.3 83 14.6 17.3 9 13 1013.1 0 32.0 33.9 61.2 161.5 170.8 592.3
08/05 01:50 19.7 88 14.94 17.6 9 13 1013.1 0 32.8 34.8 63.2 166.8 177.2 614.5
08/05 01:40 19.1 94 15.41 18.2 6 7 1013.1 0 33.8 35.9 65.9 174.0 185.8 644.2
08/05 01:30 19.1 96 15.74 18.4 2 4 1013.1 0 34.6 36.5 67.4 178.1 190.9 661.9
08/05 01:20 19 94 15.32 18.1 2 2 1013.1 0 33.7 35.8 65.5 173.1 184.7 640.3
08/05 01:10 19 94 15.32 18.1 4 4 1013.1 0 33.7 35.8 65.5 173.1 184.7 640.3
08/05 01:00 19 96 15.64 18.3 6 7 1013.1 0 34.3 36.4 67.0 177.1 189.6 657.4
08/05 00:50 18.9 96 15.55 18.2 6 6 1013.1 0 34.2 36.3 66.7 176.2 188.4 653.4
08/05 00:40 18.9 94 15.23 18 2 4 1013.1 0 33.5 35.7 65.2 172.2 183.5 636.4
08/05 00:30 19.1 95 15.57 18.3 2 4 1013.1 0 34.2 36.2 66.6 176.0 188.2 652.8
08/05 00:20 19.1 94 15.41 18.2 2 2 1013.1 0 33.8 35.9 65.9 174.0 185.8 644.2
08/05 00:10 19.3 94 15.59 18.3 4 4 1013.1 0 34.2 36.2 66.5 175.7 188.0 652.1
08/05 00:00 19.4 94 15.68 18.4 4 6 1013.1 0 34.4 36.3 66.9 176.6 189.2 656.1
07/05 23:50 19.6 94 15.87 18.7 4 4 1013.1 0 34.8 36.6 67.6 178.5 191.6 664.5
07/05 23:40 19.8 94 16.05 18.9 4 4 1013.1 0 35.2 36.8 68.2 180.3 193.8 672.3
07/05 23:30 20 95 16.42 19.2 2 4 1013.1 0 35.9 37.4 69.8 184.5 199.0 690.4
07/05 23:20 20.1 94 16.34 19.1 4 4 1013.1 0 35.8 37.2 69.3 183.2 197.5 685.2
07/05 23:10 20.2 94 16.43 19.2 6 7 1013.1 0 35.9 37.4 69.7 184.1 198.6 689.1
07/05 23:00 20.2 94 16.43 19.2 6 11 1013.1 0 35.9 37.4 69.7 184.1 198.6 689.1
07/05 22:50 20.3 94 16.53 19.3 4 4 1013.1 0 36.1 37.5 70.1 185.1 199.9 693.6
07/05 22:40 20.2 94 16.43 19.2 4 4 1013.1 0 35.9 37.4 69.7 184.1 198.6 689.1
07/05 22:30 20.3 94 16.53 19.3 4 4 1013.1 0 36.1 37.5 70.1 185.1 199.9 693.6
07/05 22:20 20.5 94 16.72 19.5 4 4 1013.1 0 36.5 37.8 70.8 187.1 202.3 702.0
07/05 22:10 20.4 94 16.63 19.4 6 6 1013.1 0 36.4 37.7 70.4 186.2 201.2 698.1
07/05 22:00 20.6 93 16.64 19.4 4 6 1013.1 0 36.4 37.6 70.3 185.8 200.8 696.8
07/05 21:50 20.6 93 16.64 19.4 4 4 1013.1 0 36.4 37.6 70.3 185.8 200.8 696.8
07/05 21:40 20.6 93 16.64 19.4 4 4 1013.1 0 36.4 37.6 70.3 185.8 200.8 696.8
07/05 21:30 20.7 93 16.74 19.5 4 6 1013.1 0 36.6 37.7 70.7 186.8 202.1 701.2
07/05 21:20 20.8 92 16.66 19.4 4 6 1013.1 0 36.4 37.5 70.2 185.6 200.6 696.0
07/05 21:10 20.9 92 16.75 19.5 4 4 1013.1 0 36.6 37.7 70.5 186.4 201.7 699.9
07/05 21:00 20.9 92 16.75 19.6 4 6 1013.1 0 36.6 37.7 70.5 186.4 201.7 699.9
07/05 20:50 21.2 90 16.68 19.6 4 4 1013.1 0 36.4 37.4 69.9 184.8 199.8 693.4
07/05 20:40 21.6 89 16.88 19.7 6 6 1013.1 0 36.8 37.6 70.5 186.3 201.8 700.4
07/05 20:30 22.4 88 17.48 20.3 4 6 1013.1 0 38.0 38.4 72.6 191.9 208.8 725.0
07/05 20:20 22.7 87 17.58 20.4 4 4 1013.1 0 38.2 38.4 72.8 192.4 209.5 727.4
07/05 20:10 23 87 17.88 20.7 4 4 1013.1 0 38.8 38.9 73.9 195.4 213.3 740.6
07/05 20:00 23.1 86 17.78 20.6 4 6 1013.1 0 38.6 38.6 73.3 193.8 211.5 734.3

Last Refresh: 08-May-2026 12:07:31

Bureau of Meteorology